createdAt,value
2019-03-13T00:00:56.034Z,100098.22
2019-03-13T00:03:31.279Z,100096.03
2019-03-13T00:06:05.331Z,100087.38
2019-03-13T00:08:39.627Z,100089.12
2019-03-13T00:11:15.755Z,100081.72
2019-03-13T00:13:49.630Z,100061.80
2019-03-13T00:16:23.318Z,100066.12
2019-03-13T00:18:57.132Z,100063.52
2019-03-13T00:21:31.212Z,100055.70
2019-03-13T00:24:04.856Z,100044.00
2019-03-13T00:26:38.421Z,100037.94
2019-03-13T00:29:12.033Z,100050.52
2019-03-13T00:31:46.068Z,100042.26
2019-03-13T00:34:19.570Z,100046.61
2019-03-13T00:36:53.094Z,100040.53
2019-03-13T00:39:26.783Z,100031.44
2019-03-13T00:42:00.396Z,100028.39
2019-03-13T00:44:33.952Z,100022.31
2019-03-13T00:47:07.454Z,100017.98
2019-03-13T00:49:42.757Z,100006.72
2019-03-13T00:52:16.293Z,100006.27
2019-03-13T00:54:49.841Z,99996.73
2019-03-13T00:57:23.495Z,99988.06
2019-03-13T00:59:57.154Z,99985.47
2019-03-13T01:02:40.584Z,99987.63
2019-03-13T01:05:17.759Z,99979.82
2019-03-13T01:07:51.755Z,99971.17
2019-03-13T01:10:25.424Z,99960.77
2019-03-13T01:13:00.485Z,99954.25
2019-03-13T01:15:34.870Z,99945.59
2019-03-13T01:18:09.122Z,99944.72
2019-03-13T01:20:43.311Z,99942.12
2019-03-13T01:23:17.494Z,99935.59
2019-03-13T01:25:51.040Z,99922.16
2019-03-13T01:28:24.688Z,99917.39
2019-03-13T01:31:16.988Z,99905.71
2019-03-13T01:33:50.752Z,99907.88
2019-03-13T01:36:24.906Z,99892.67
2019-03-13T01:38:58.633Z,99879.67
2019-03-13T01:41:32.214Z,99874.89
2019-03-13T01:44:05.972Z,99870.55
2019-03-13T01:46:41.636Z,99859.70
2019-03-13T01:49:15.341Z,99863.17
2019-03-13T01:51:49.040Z,99846.67
2019-03-13T01:54:22.790Z,99847.98
2019-03-13T01:56:56.523Z,99837.58
2019-03-13T01:59:30.447Z,99831.48
2019-03-13T02:02:05.700Z,99825.84
2019-03-13T02:04:40.782Z,99813.27
2019-03-13T02:07:14.903Z,99813.24
2019-03-13T02:09:48.500Z,99803.72
2019-03-13T02:12:22.069Z,99808.05
2019-03-13T02:14:55.750Z,99788.08
2019-03-13T02:17:30.372Z,99795.45
2019-03-13T02:20:06.167Z,99786.34
2019-03-13T02:22:39.685Z,99782.41
2019-03-13T02:25:13.259Z,99769.39
2019-03-13T02:27:47.236Z,99770.70
2019-03-13T02:30:22.067Z,99762.00
2019-03-13T02:32:55.776Z,99759.81
2019-03-13T02:35:29.844Z,99760.67
2019-03-13T02:38:03.970Z,99753.30
2019-03-13T02:40:38.755Z,99756.35
2019-03-13T02:43:12.321Z,99745.47
2019-03-13T02:45:46.013Z,99743.30
2019-03-13T02:48:24.961Z,99739.84
2019-03-13T02:50:58.610Z,99730.27
2019-03-13T02:53:41.931Z,99722.89
2019-03-13T02:56:37.573Z,99724.64
2019-03-13T02:59:11.374Z,99723.78
2019-03-13T03:02:24.465Z,99729.02
2019-03-13T03:04:58.177Z,99741.97
2019-03-13T03:07:31.797Z,99733.72
2019-03-13T03:10:05.736Z,99728.52
2019-03-13T03:12:39.358Z,99736.77
2019-03-13T03:15:18.359Z,99747.18
2019-03-13T03:17:52.612Z,99732.83
2019-03-13T03:20:26.483Z,99740.64
2019-03-13T03:23:00.098Z,99729.78
2019-03-13T03:25:33.721Z,99730.67
2019-03-13T03:28:07.327Z,99726.77
2019-03-13T03:30:41.005Z,99725.02
2019-03-13T03:33:14.816Z,99725.88
2019-03-13T03:35:48.936Z,99713.30
2019-03-13T03:38:23.598Z,99715.02
2019-03-13T03:40:58.857Z,99713.71
2019-03-13T03:43:40.363Z,99715.46
2019-03-13T03:46:09.315Z,99707.20
2019-03-13T03:48:45.594Z,99712.82
2019-03-13T03:51:20.031Z,99708.06
2019-03-13T03:53:57.606Z,99703.70
2019-03-13T03:56:32.130Z,99700.21
2019-03-13T03:59:06.425Z,99701.52
2019-03-13T04:01:41.436Z,99691.09
2019-03-13T04:04:15.467Z,99691.95
2019-03-13T04:06:50.819Z,99687.56
2019-03-13T04:09:26.096Z,99684.95
2019-03-13T04:11:59.881Z,99689.31
2019-03-13T04:14:34.771Z,99679.30
2019-03-13T04:17:08.634Z,99681.91
2019-03-13T04:19:42.400Z,99688.00
2019-03-13T04:22:16.153Z,99677.99
2019-03-13T04:24:49.733Z,99688.82
2019-03-13T04:27:24.858Z,99689.27
2019-03-13T04:29:58.481Z,99692.23
2019-03-13T04:32:32.058Z,99683.98
2019-03-13T04:35:05.569Z,99694.80
2019-03-13T04:37:39.066Z,99692.15
2019-03-13T04:40:12.527Z,99699.52
2019-03-13T04:42:45.998Z,99698.63
2019-03-13T04:45:19.539Z,99705.13
2019-03-13T04:47:53.603Z,99704.67
2019-03-13T04:50:27.121Z,99699.88
2019-03-13T04:53:00.681Z,99705.08
2019-03-13T04:55:34.549Z,99713.75
2019-03-13T04:58:09.011Z,99692.11
2019-03-13T05:00:42.759Z,99708.45
2019-03-13T05:03:16.225Z,99715.86
2019-03-13T05:06:02.175Z,99711.91
2019-03-13T05:08:45.390Z,99707.55
2019-03-13T05:11:18.119Z,99708.86
2019-03-13T05:13:51.581Z,99714.92
2019-03-13T05:16:26.127Z,99701.89
2019-03-13T05:18:59.564Z,99702.34
2019-03-13T05:21:33.028Z,99708.40
2019-03-13T05:24:06.399Z,99709.70
2019-03-13T05:26:39.967Z,99715.77
2019-03-13T05:29:15.465Z,99725.75
2019-03-13T05:31:48.818Z,99728.80
2019-03-13T05:34:22.256Z,99743.98
2019-03-13T05:36:56.599Z,99750.95
2019-03-13T05:39:30.010Z,99763.58
2019-03-13T05:42:03.734Z,99757.06
2019-03-13T05:44:37.083Z,99767.53
2019-03-13T05:47:10.415Z,99769.73
2019-03-13T05:49:43.772Z,99772.37
2019-03-13T05:52:17.216Z,99786.66
2019-03-13T05:54:50.657Z,99796.67
2019-03-13T05:57:24.032Z,99784.95
2019-03-13T05:59:57.433Z,99795.00
2019-03-13T06:02:31.455Z,99780.23
2019-03-13T06:05:06.082Z,99789.39
2019-03-13T06:07:39.655Z,99782.02
2019-03-13T06:10:13.155Z,99777.66
2019-03-13T06:12:46.936Z,99783.77
2019-03-13T06:15:20.493Z,99787.23
2019-03-13T06:17:54.324Z,99788.53
2019-03-13T06:20:27.826Z,99787.67
2019-03-13T06:23:01.268Z,99794.63
2019-03-13T06:25:35.153Z,99798.98
2019-03-13T06:28:08.553Z,99809.81
2019-03-13T06:30:44.208Z,99813.77
2019-03-13T06:33:20.064Z,99812.02
2019-03-13T06:35:53.623Z,99820.27
2019-03-13T06:38:27.118Z,99805.02
2019-03-13T06:41:00.945Z,99807.62
2019-03-13T06:43:34.397Z,99811.08
2019-03-13T06:46:07.909Z,99817.19
2019-03-13T06:48:41.388Z,99817.63
2019-03-13T06:51:14.861Z,99826.72
2019-03-13T06:53:48.469Z,99824.97
2019-03-13T06:56:22.352Z,99841.94
2019-03-13T06:59:17.794Z,99840.22
2019-03-13T07:02:18.894Z,99838.92
2019-03-13T07:05:02.576Z,99837.65
2019-03-13T07:08:12.880Z,99829.36
2019-03-13T07:11:07.982Z,99834.59
2019-03-13T07:13:50.290Z,99844.57
2019-03-13T07:16:51.368Z,99843.72
2019-03-13T07:19:35.604Z,99853.24
2019-03-13T07:22:26.827Z,99855.81
2019-03-13T07:25:15.867Z,99864.97
2019-03-13T07:27:59.478Z,99869.73
2019-03-13T07:30:48.794Z,99875.77
2019-03-13T07:33:43.947Z,99867.95
2019-03-13T07:36:37.505Z,99867.51
2019-03-13T07:39:35.497Z,99878.81
2019-03-13T07:42:27.583Z,99885.30
2019-03-13T07:45:35.175Z,99892.67
2019-03-13T07:48:17.912Z,99890.03
2019-03-13T07:51:13.247Z,99902.11
2019-03-13T07:54:11.213Z,99899.47
2019-03-13T07:57:13.448Z,99905.91
2019-03-13T07:59:58.816Z,99915.00
2019-03-13T08:02:49.513Z,99915.20
2019-03-13T08:05:47.689Z,99913.09
2019-03-13T08:08:44.165Z,99918.38
2019-03-13T08:11:35.197Z,99917.70
2019-03-13T08:14:26.188Z,99924.23
2019-03-13T08:17:36.379Z,99932.34
2019-03-13T08:20:29.295Z,99927.08
2019-03-13T08:23:19.932Z,99929.68
2019-03-13T08:26:11.992Z,99949.73
2019-03-13T08:29:04.099Z,99948.36
2019-03-13T08:31:56.184Z,99951.02
2019-03-13T08:34:54.337Z,99963.08
2019-03-13T08:37:49.726Z,99963.28
2019-03-13T08:40:44.902Z,99951.16
2019-03-13T08:43:43.042Z,99968.59
2019-03-13T08:46:38.210Z,99975.28
2019-03-13T08:49:39.739Z,99972.63
2019-03-13T08:52:33.455Z,99970.25
2019-03-13T08:55:26.953Z,99980.84
2019-03-13T08:58:12.321Z,99974.03
2019-03-13T09:01:12.077Z,99988.67
2019-03-13T09:03:56.453Z,99984.39
2019-03-13T09:06:51.691Z,100000.16
2019-03-13T09:09:43.942Z,99981.82
2019-03-13T09:12:45.311Z,99989.17
2019-03-13T09:15:29.247Z,100001.32
2019-03-13T09:18:27.823Z,99992.14
2019-03-13T09:21:22.941Z,100006.44
2019-03-13T09:24:02.646Z,100013.52
2019-03-13T09:26:53.481Z,100016.52
2019-03-13T09:29:49.794Z,100010.53
2019-03-13T09:32:47.924Z,100017.70
2019-03-13T09:35:42.769Z,100014.18
2019-03-13T09:38:30.906Z,100026.78
2019-03-13T09:41:32.093Z,100037.53
2019-03-13T09:44:34.480Z,100036.31
2019-03-13T09:47:41.897Z,100030.35
2019-03-13T09:50:49.816Z,100041.47
2019-03-13T09:53:33.509Z,100035.24
2019-03-13T09:56:21.495Z,100038.80
2019-03-13T09:59:19.800Z,100043.65
2019-03-13T10:02:11.950Z,100035.47
2019-03-13T10:05:22.292Z,100042.80
2019-03-13T10:08:17.403Z,100038.59
2019-03-13T10:11:25.433Z,100030.72
2019-03-13T10:14:09.110Z,100028.50
2019-03-13T10:17:11.048Z,100018.45
2019-03-13T10:19:54.503Z,100025.12
2019-03-13T10:22:46.813Z,100021.41
2019-03-13T10:25:53.214Z,100031.08
2019-03-13T10:28:45.274Z,100021.06
2019-03-13T10:31:37.312Z,100021.20
2019-03-13T10:34:29.408Z,100034.45
2019-03-13T10:37:19.671Z,100025.00
2019-03-13T10:40:11.022Z,100041.63
2019-03-13T10:43:02.158Z,100038.05
2019-03-13T10:45:48.320Z,100027.43
2019-03-13T10:48:27.966Z,100034.88
2019-03-13T10:51:17.720Z,100032.83
2019-03-13T10:54:06.807Z,100032.99
2019-03-13T10:56:57.430Z,100018.64
2019-03-13T10:59:52.519Z,100022.44
2019-03-13T11:02:39.514Z,100025.00
2019-03-13T11:05:31.890Z,100020.77
2019-03-13T11:08:10.830Z,100019.13
2019-03-13T11:11:03.303Z,100022.22
2019-03-13T11:14:14.896Z,100028.84
2019-03-13T11:16:51.889Z,100018.81
2019-03-13T11:19:31.899Z,100019.17
2019-03-13T11:22:16.498Z,100032.50
2019-03-13T11:25:03.674Z,100035.94
2019-03-13T11:28:01.722Z,100025.19
2019-03-13T11:30:43.766Z,100031.06
2019-03-13T11:33:43.057Z,100021.52
2019-03-13T11:36:29.199Z,100017.13
2019-03-13T11:39:33.158Z,100022.94
2019-03-13T11:42:35.270Z,100017.56
2019-03-13T11:45:39.515Z,100001.03
2019-03-13T11:48:30.265Z,100005.34
2019-03-13T11:51:22.310Z,100004.31
2019-03-13T11:54:04.234Z,100004.70
2019-03-13T11:56:46.677Z,99996.62
2019-03-13T11:59:38.061Z,99996.46
2019-03-13T12:02:48.399Z,99992.16
2019-03-13T12:05:37.675Z,99991.17
2019-03-13T12:08:32.332Z,99983.39
2019-03-13T12:11:23.234Z,99975.81
2019-03-13T12:14:14.037Z,99971.97
2019-03-13T12:16:55.685Z,99971.82
2019-03-13T12:19:50.449Z,99979.57
2019-03-13T12:22:39.096Z,99979.69
2019-03-13T12:25:26.559Z,99978.45
2019-03-13T12:28:27.349Z,99958.02
2019-03-13T12:31:19.389Z,99977.89
2019-03-13T12:34:12.443Z,99958.92
2019-03-13T12:36:58.156Z,99961.17
2019-03-13T12:39:53.006Z,99963.41
2019-03-13T12:42:41.569Z,99960.30
2019-03-13T12:45:34.863Z,99956.06
2019-03-13T12:48:16.976Z,99944.85
2019-03-13T12:51:24.716Z,99949.76
2019-03-13T12:54:16.840Z,99949.50
2019-03-13T12:57:15.468Z,99956.78
2019-03-13T13:00:07.633Z,99941.61
2019-03-13T13:03:10.736Z,99949.66
2019-03-13T13:06:02.045Z,99952.12
2019-03-13T13:08:59.991Z,99949.83
2019-03-13T13:11:51.703Z,99945.52
2019-03-13T13:14:42.545Z,99948.74
2019-03-13T13:17:21.849Z,99946.24
2019-03-13T13:19:55.453Z,99941.61
2019-03-13T13:22:29.765Z,99934.78
2019-03-13T13:25:03.356Z,99941.61
2019-03-13T13:27:37.277Z,99933.13
2019-03-13T13:30:12.087Z,99938.20
2019-03-13T13:32:45.759Z,99935.45
2019-03-13T13:35:19.250Z,99928.33
2019-03-13T13:37:52.720Z,99930.66
2019-03-13T13:40:26.096Z,99917.16
2019-03-13T13:42:59.553Z,99925.62
2019-03-13T13:46:15.557Z,99919.45
2019-03-13T13:48:49.997Z,99920.51
2019-03-13T13:51:23.483Z,99920.89
2019-03-13T13:53:56.937Z,99914.34
2019-03-13T13:56:30.348Z,99926.80
2019-03-13T13:59:03.793Z,99923.45
2019-03-13T14:01:37.465Z,99910.89
2019-03-13T14:04:10.929Z,99912.88
2019-03-13T14:06:44.126Z,99913.38
2019-03-13T14:09:17.308Z,99916.05
2019-03-13T14:11:52.324Z,99917.72
2019-03-13T14:14:26.537Z,99915.45
2019-03-13T14:16:59.708Z,99917.27
2019-03-13T14:19:32.871Z,99917.94
2019-03-13T14:22:06.014Z,99905.32
2019-03-13T14:24:39.210Z,99909.55
2019-03-13T14:27:14.942Z,99903.28
2019-03-13T14:29:47.473Z,99910.18
2019-03-13T14:32:20.619Z,99911.07
2019-03-13T14:35:09.518Z,99918.75
2019-03-13T14:38:13.757Z,99902.87
2019-03-13T14:40:54.439Z,99905.17
2019-03-13T14:43:40.420Z,99907.27
2019-03-13T14:46:17.951Z,99895.66
2019-03-13T14:48:51.138Z,99900.09
2019-03-13T14:51:28.612Z,99894.55
2019-03-13T14:54:07.188Z,99903.93
2019-03-13T14:56:42.394Z,99902.75
2019-03-13T14:59:15.557Z,99898.91
2019-03-13T15:01:48.821Z,99903.78
2019-03-13T15:04:23.575Z,99904.66
2019-03-13T15:06:56.674Z,99893.59
2019-03-13T15:09:29.882Z,99894.29
2019-03-13T15:12:02.977Z,99900.57
2019-03-13T15:14:36.208Z,99897.69
2019-03-13T15:17:09.634Z,99904.75
2019-03-13T15:19:42.836Z,99899.63
2019-03-13T15:22:16.067Z,99894.41
2019-03-13T15:24:49.373Z,99895.32
2019-03-13T15:27:22.609Z,99901.53
2019-03-13T15:29:55.780Z,99893.75
2019-03-13T15:32:29.029Z,99891.52
2019-03-13T15:35:02.191Z,99892.37
2019-03-13T15:37:35.541Z,99892.01
2019-03-13T15:40:10.627Z,99896.54
2019-03-13T15:42:43.981Z,99886.03
2019-03-13T15:45:19.294Z,99887.47
2019-03-13T15:47:53.108Z,99879.42
2019-03-13T15:50:26.478Z,99892.27
2019-03-13T15:52:59.927Z,99890.12
2019-03-13T15:55:33.185Z,99896.27
2019-03-13T15:58:09.549Z,99893.27
2019-03-13T16:00:42.981Z,99895.08
2019-03-13T16:03:16.354Z,99887.53
2019-03-13T16:05:49.753Z,99892.12
2019-03-13T16:08:23.255Z,99888.77
2019-03-13T16:10:56.616Z,99886.72
2019-03-13T16:13:30.032Z,99882.05
2019-03-13T16:16:03.391Z,99878.30
2019-03-13T16:18:36.778Z,99887.05
2019-03-13T16:21:10.008Z,99884.13
2019-03-13T16:23:44.874Z,99875.52
2019-03-13T16:26:18.581Z,99869.47
2019-03-13T16:28:52.280Z,99875.66
2019-03-13T16:31:26.033Z,99870.87
2019-03-13T16:33:59.862Z,99873.52
2019-03-13T16:36:33.902Z,99868.39
2019-03-13T16:39:09.153Z,99870.19
2019-03-13T16:41:43.759Z,99863.81
2019-03-13T16:44:18.100Z,99859.98
2019-03-13T16:46:52.645Z,99866.60
2019-03-13T16:49:26.957Z,99874.95
2019-03-13T16:52:04.754Z,99875.50
2019-03-13T16:54:40.169Z,99874.67
2019-03-13T16:57:15.123Z,99866.46
2019-03-13T16:59:59.986Z,99866.58
2019-03-13T17:02:24.481Z,99862.75
2019-03-13T17:04:58.670Z,99863.66
2019-03-13T17:07:32.632Z,99857.13
2019-03-13T17:10:06.923Z,99862.01
2019-03-13T17:12:40.922Z,99855.11
2019-03-13T17:15:17.977Z,99854.77
2019-03-13T17:17:51.847Z,99853.13
2019-03-13T17:20:27.599Z,99852.33
2019-03-13T17:23:01.602Z,99852.33
2019-03-13T17:25:35.770Z,99853.27
2019-03-13T17:28:09.984Z,99854.66
2019-03-13T17:30:43.615Z,99851.61
2019-03-13T17:33:17.028Z,99856.87
2019-03-13T17:35:50.464Z,99847.30
2019-03-13T17:38:23.940Z,99842.14
2019-03-13T17:40:57.962Z,99842.25
2019-03-13T17:43:39.042Z,99850.14
2019-03-13T17:46:13.729Z,99846.70
2019-03-13T17:48:47.237Z,99847.63
2019-03-13T17:51:21.152Z,99845.08
2019-03-13T17:53:54.616Z,99843.31
2019-03-13T17:56:28.538Z,99842.40
2019-03-13T17:59:02.510Z,99839.38
2019-03-13T18:01:38.266Z,99842.45
2019-03-13T18:04:12.365Z,99843.34
2019-03-13T18:06:46.369Z,99838.63
2019-03-13T18:09:19.805Z,99840.36
2019-03-13T18:11:55.736Z,99839.97
2019-03-13T18:14:32.071Z,99839.13
2019-03-13T18:17:05.679Z,99839.21
2019-03-13T18:19:39.579Z,99837.45
2019-03-13T18:22:13.181Z,99834.47
2019-03-13T18:24:52.075Z,99828.41
2019-03-13T18:27:38.922Z,99827.59
2019-03-13T18:30:21.422Z,99821.14
2019-03-13T18:33:11.160Z,99818.52
2019-03-13T18:35:47.742Z,99819.45
2019-03-13T18:38:48.400Z,99815.12
2019-03-13T18:41:23.551Z,99815.63
2019-03-13T18:43:57.142Z,99810.41
2019-03-13T18:46:30.706Z,99807.36
2019-03-13T18:49:08.985Z,99808.30
2019-03-13T18:51:42.986Z,99807.03
2019-03-13T18:54:16.475Z,99806.66
2019-03-13T18:56:49.912Z,99809.32
2019-03-13T18:59:25.965Z,99811.09
2019-03-13T19:01:59.355Z,99810.69
2019-03-13T19:04:32.883Z,99808.09
2019-03-13T19:07:06.349Z,99801.09
2019-03-13T19:09:39.998Z,99803.33
2019-03-13T19:12:14.237Z,99798.95
2019-03-13T19:14:48.796Z,99796.80
2019-03-13T19:17:22.582Z,99800.73
2019-03-13T19:19:56.019Z,99794.66
2019-03-13T19:22:29.452Z,99789.02
2019-03-13T19:25:03.014Z,99781.17
2019-03-13T19:27:36.492Z,99779.00
2019-03-13T19:30:15.769Z,99776.43
2019-03-13T19:32:50.231Z,99770.81
2019-03-13T19:35:23.687Z,99780.05
2019-03-13T19:37:58.163Z,99777.06
2019-03-13T19:40:31.613Z,99770.98
2019-03-13T19:43:05.027Z,99768.83
2019-03-13T19:45:43.246Z,99765.77
2019-03-13T19:48:18.770Z,99762.67
2019-03-13T19:50:56.394Z,99760.99
2019-03-13T19:53:34.561Z,99751.00
2019-03-13T19:56:12.189Z,99755.78
2019-03-13T19:58:45.704Z,99751.43
2019-03-13T20:01:19.087Z,99755.83
2019-03-13T20:03:55.324Z,99711.01
2019-03-13T20:06:27.629Z,99754.14
2019-03-13T20:09:01.254Z,99746.29
2019-03-13T20:11:36.297Z,99733.68
2019-03-13T20:14:09.854Z,99736.70
2019-03-13T20:16:46.447Z,99737.17
2019-03-13T20:19:18.737Z,99737.62
2019-03-13T20:21:52.181Z,99735.47
2019-03-13T20:24:25.539Z,99729.80
2019-03-13T20:26:59.027Z,99730.23
2019-03-13T20:29:32.543Z,99731.94
2019-03-13T20:32:06.016Z,99730.23
2019-03-13T20:34:39.406Z,99727.08
2019-03-13T20:37:13.206Z,99724.06
2019-03-13T20:39:46.677Z,99723.21
2019-03-13T20:42:20.143Z,99722.30
2019-03-13T20:44:53.668Z,99715.30
2019-03-13T20:47:31.011Z,99712.28
2019-03-13T20:50:04.438Z,99709.67
2019-03-13T20:52:38.162Z,99708.44
2019-03-13T20:55:13.046Z,99711.00
2019-03-13T20:57:46.771Z,99709.77
2019-03-13T21:00:23.303Z,99701.94
2019-03-13T21:02:56.683Z,99704.53
2019-03-13T21:05:30.107Z,99704.16
2019-03-13T21:08:03.441Z,99695.92
2019-03-13T21:10:36.945Z,99688.55
2019-03-13T21:13:10.241Z,99693.31
2019-03-13T21:15:43.995Z,99688.57
2019-03-13T21:18:17.470Z,99686.81
2019-03-13T21:20:50.829Z,99683.31
2019-03-13T21:23:24.191Z,99683.34
2019-03-13T21:25:57.521Z,99674.66
2019-03-13T21:28:30.842Z,99674.20
2019-03-13T21:31:04.228Z,99676.88
2019-03-13T21:33:38.038Z,99675.59
2019-03-13T21:36:11.466Z,99677.37
2019-03-13T21:38:44.892Z,99666.52
2019-03-13T21:41:18.182Z,99666.98
2019-03-13T21:43:51.723Z,99657.02
2019-03-13T21:46:25.825Z,99663.61
2019-03-13T21:48:59.255Z,99655.76
2019-03-13T21:51:32.535Z,99660.94
2019-03-13T21:54:05.843Z,99667.02
2019-03-13T21:56:39.195Z,99661.39
2019-03-13T21:59:12.605Z,99664.46
2019-03-13T22:01:46.073Z,99664.56
2019-03-13T22:04:24.007Z,99655.11
2019-03-13T22:06:55.389Z,99660.34
2019-03-13T22:09:29.001Z,99656.45
2019-03-13T22:12:02.533Z,99652.16
2019-03-13T22:14:38.405Z,99648.28
2019-03-13T22:17:11.185Z,99646.52
2019-03-13T22:19:44.719Z,99632.13
2019-03-13T22:22:18.614Z,99641.67
2019-03-13T22:24:53.056Z,99643.37
2019-03-13T22:27:26.514Z,99637.34
2019-03-13T22:30:00.386Z,99643.80
2019-03-13T22:32:37.654Z,99638.12
2019-03-13T22:35:11.167Z,99639.03
2019-03-13T22:37:44.647Z,99632.11
2019-03-13T22:40:18.423Z,99635.15
2019-03-13T22:42:52.701Z,99635.60
2019-03-13T22:45:26.171Z,99622.13
2019-03-13T22:47:59.615Z,99623.00
2019-03-13T22:50:33.228Z,99618.22
2019-03-13T22:53:06.744Z,99618.70
2019-03-13T22:55:41.155Z,99617.39
2019-03-13T22:58:14.956Z,99615.25
2019-03-13T23:01:22.612Z,99612.18
2019-03-13T23:03:56.417Z,99610.02
2019-03-13T23:06:30.042Z,99600.51
2019-03-13T23:09:03.195Z,99598.34
2019-03-13T23:11:43.114Z,99592.28
2019-03-13T23:14:16.284Z,99591.41
2019-03-13T23:16:49.457Z,99594.85
2019-03-13T23:19:22.655Z,99591.41
2019-03-13T23:21:55.828Z,99595.78
2019-03-13T23:24:28.999Z,99588.41
2019-03-13T23:27:02.177Z,99590.14
2019-03-13T23:29:35.834Z,99593.27
2019-03-13T23:32:08.983Z,99590.22
2019-03-13T23:34:42.141Z,99591.16
2019-03-13T23:37:15.331Z,99590.70
2019-03-13T23:39:48.915Z,99585.07
2019-03-13T23:42:23.224Z,99589.92
2019-03-13T23:44:56.385Z,99588.61
2019-03-13T23:47:29.514Z,99583.01
2019-03-13T23:50:02.646Z,99585.56
2019-03-13T23:52:35.807Z,99582.95
2019-03-13T23:55:08.976Z,99575.16
2019-03-13T23:57:42.122Z,99576.49
